createdAt,value
2018-02-10T09:23:18.981Z,38.67
2018-02-10T09:28:22.107Z,38.20
2018-02-10T09:33:24.879Z,37.40
2018-02-10T09:38:27.640Z,33.20
2018-02-10T09:43:30.539Z,37.42
2018-02-10T09:48:34.332Z,33.97
2018-02-10T09:53:45.418Z,34.55
2018-02-10T09:58:48.163Z,36.15
2018-02-10T10:03:57.071Z,33.17
2018-02-10T10:09:01.045Z,29.87
2018-02-10T10:14:03.858Z,34.33
2018-02-10T10:19:07.029Z,31.37
2018-02-10T10:24:10.310Z,32.88
2018-02-10T10:29:13.848Z,31.12
2018-02-10T10:34:17.468Z,34.27
2018-02-10T10:39:21.032Z,31.27
2018-02-10T10:44:25.790Z,29.98
2018-02-10T10:49:33.713Z,29.90
2018-02-10T10:54:38.136Z,32.55
2018-02-10T10:59:41.016Z,30.80
2018-02-10T11:04:43.798Z,30.67
2018-02-10T11:09:46.790Z,31.87
2018-02-10T11:14:49.605Z,31.73
2018-02-10T11:19:52.749Z,30.83
2018-02-10T11:24:55.550Z,29.08
2018-02-10T11:29:58.371Z,30.35
2018-02-10T11:35:02.076Z,29.63
2018-02-10T11:40:05.737Z,29.25
2018-02-10T11:45:12.737Z,28.58
2018-02-10T11:50:21.959Z,31.25
2018-02-10T11:55:27.544Z,30.08
2018-02-10T12:00:31.365Z,29.15
2018-02-10T12:05:34.187Z,29.48
2018-02-10T12:10:37.554Z,30.40
2018-02-10T12:15:40.488Z,31.60
2018-02-10T12:20:48.137Z,29.45
2018-02-10T12:25:50.918Z,27.80
2018-02-10T12:30:53.761Z,28.35
2018-02-10T12:36:00.552Z,31.20
2018-02-10T12:41:03.706Z,30.37
2018-02-10T12:46:06.567Z,28.33
2018-02-10T12:51:09.610Z,28.17
2018-02-10T14:00:51.852Z,21.08
2018-02-10T14:05:57.072Z,22.73
2018-02-10T14:11:03.132Z,21.23
2018-02-10T14:16:09.223Z,19.60
2018-02-10T14:21:13.058Z,19.13
2018-02-10T14:26:16.085Z,20.25
2018-02-10T17:35:06.548Z,18.73
2018-02-10T17:40:09.768Z,19.70
2018-02-10T17:45:12.764Z,22.77
2018-02-10T17:50:16.415Z,21.52
2018-02-10T17:55:19.890Z,22.83
2018-02-10T18:00:22.713Z,21.52
2018-02-10T18:05:30.291Z,20.73
2018-02-10T18:10:33.245Z,25.33
2018-02-10T18:15:38.259Z,20.97
2018-02-10T18:20:43.852Z,19.65
2018-02-10T18:31:23.750Z,19.42
2018-02-10T18:41:44.753Z,20.73
2018-02-10T18:52:27.546Z,20.52
2018-02-10T18:57:31.633Z,20.15
2018-02-10T19:02:41.003Z,22.62
2018-02-10T19:07:49.383Z,22.50
2018-02-10T19:13:12.454Z,23.02
2018-02-10T19:18:19.021Z,21.92
2018-02-10T19:23:25.979Z,23.50
2018-02-10T19:28:30.964Z,25.52
2018-02-10T19:33:34.280Z,26.70
2018-02-10T19:38:40.125Z,25.52
2018-02-10T19:43:58.467Z,25.50
2018-02-10T19:49:05.209Z,23.25
2018-02-10T19:54:12.961Z,25.35
2018-02-10T19:59:15.761Z,26.00
2018-02-10T20:04:33.376Z,25.73
2018-02-10T20:09:36.282Z,30.02
2018-02-10T20:19:53.917Z,29.47
2018-02-10T20:24:57.605Z,28.00
2018-02-10T20:30:37.168Z,27.70
2018-02-10T20:35:39.968Z,25.87
2018-02-10T20:40:42.972Z,27.30
2018-02-10T20:51:03.982Z,29.80
2018-02-10T20:56:22.860Z,32.70
2018-02-10T21:06:39.678Z,33.53
2018-02-10T21:11:43.561Z,30.48
2018-02-10T21:17:03.570Z,32.38
2018-02-10T21:22:07.528Z,33.60
2018-02-10T21:33:05.742Z,33.20
2018-02-10T21:38:08.589Z,33.38
2018-02-10T21:43:11.552Z,31.83
2018-02-10T21:48:14.415Z,32.55
2018-02-10T21:53:18.061Z,29.58
2018-02-10T21:58:34.675Z,30.92
2018-02-10T22:03:42.388Z,30.50
2018-02-10T22:08:45.270Z,30.75
2018-02-10T22:14:04.251Z,28.25
2018-02-10T22:19:07.675Z,29.70
2018-02-10T22:24:10.527Z,29.50
2018-02-10T22:34:29.375Z,28.10
2018-02-10T22:39:51.579Z,28.55
2018-02-10T22:44:55.068Z,29.87
2018-02-10T22:49:57.920Z,26.40
2018-02-10T22:55:06.971Z,25.08
2018-02-10T23:00:23.206Z,25.30
2018-02-10T23:11:35.888Z,26.55
2018-02-10T23:16:39.651Z,22.95
2018-02-10T23:50:06.744Z,20.25
